sensor_id;sensor_type;location;lat;lon;timestamp;pressure;altitude;pressure_sealevel;temperature;humidity
56876;BME280;42622;49.972;8.452;2022-11-06T00:01:15;101079.22;;;5.19;100.00
56876;BME280;42622;49.972;8.452;2022-11-06T00:03:42;101070.84;;;5.09;100.00
56876;BME280;42622;49.972;8.452;2022-11-06T00:06:15;101064.25;;;4.97;100.00
56876;BME280;42622;49.972;8.452;2022-11-06T00:09:03;101058.59;;;4.85;100.00
56876;BME280;42622;49.972;8.452;2022-11-06T00:11:29;101055.34;;;4.76;100.00
56876;BME280;42622;49.972;8.452;2022-11-06T00:13:55;101053.91;;;4.68;100.00
56876;BME280;42622;49.972;8.452;2022-11-06T00:16:21;101054.97;;;4.62;100.00
56876;BME280;42622;49.972;8.452;2022-11-06T00:18:48;101043.91;;;4.54;100.00
56876;BME280;42622;49.972;8.452;2022-11-06T00:21:21;101038.84;;;4.48;100.00
56876;BME280;42622;49.972;8.452;2022-11-06T00:23:48;101041.69;;;4.42;100.00
56876;BME280;42622;49.972;8.452;2022-11-06T00:26:19;101040.88;;;4.40;100.00
56876;BME280;42622;49.972;8.452;2022-11-06T00:28:45;101026.84;;;4.42;100.00
56876;BME280;42622;49.972;8.452;2022-11-06T00:31:19;101019.84;;;4.43;100.00
56876;BME280;42622;49.972;8.452;2022-11-06T00:33:46;101026.69;;;4.47;100.00
56876;BME280;42622;49.972;8.452;2022-11-06T00:36:16;101027.53;;;4.47;100.00
56876;BME280;42622;49.972;8.452;2022-11-06T00:38:42;101008.41;;;4.45;100.00
56876;BME280;42622;49.972;8.452;2022-11-06T00:41:13;101016.03;;;4.51;100.00
56876;BME280;42622;49.972;8.452;2022-11-06T00:43:39;101011.66;;;4.52;100.00
56876;BME280;42622;49.972;8.452;2022-11-06T00:46:10;101015.03;;;4.55;100.00
56876;BME280;42622;49.972;8.452;2022-11-06T00:48:37;101011.47;;;4.58;100.00
56876;BME280;42622;49.972;8.452;2022-11-06T00:51:23;100998.38;;;4.58;100.00
56876;BME280;42622;49.972;8.452;2022-11-06T00:53:57;100993.03;;;4.61;100.00
56876;BME280;42622;49.972;8.452;2022-11-06T00:56:25;101002.59;;;4.62;100.00
56876;BME280;42622;49.972;8.452;2022-11-06T00:58:52;100992.94;;;4.64;100.00
56876;BME280;42622;49.972;8.452;2022-11-06T01:01:30;100991.22;;;4.63;100.00
56876;BME280;42622;49.972;8.452;2022-11-06T01:04:13;100993.03;;;4.61;100.00
56876;BME280;42622;49.972;8.452;2022-11-06T01:06:42;100991.34;;;4.60;100.00
56876;BME280;42622;49.972;8.452;2022-11-06T01:09:13;100987.03;;;4.58;100.00
56876;BME280;42622;49.972;8.452;2022-11-06T01:11:43;100995.84;;;4.55;100.00
56876;BME280;42622;49.972;8.452;2022-11-06T01:14:13;100983.84;;;4.49;100.00
56876;BME280;42622;49.972;8.452;2022-11-06T01:16:39;101001.25;;;4.50;100.00
56876;BME280;42622;49.972;8.452;2022-11-06T01:19:07;100995.16;;;4.50;100.00
56876;BME280;42622;49.972;8.452;2022-11-06T01:21:38;101002.00;;;4.54;100.00
56876;BME280;42622;49.972;8.452;2022-11-06T01:24:11;101010.69;;;4.56;100.00
56876;BME280;42622;49.972;8.452;2022-11-06T01:26:38;101014.16;;;4.57;100.00
56876;BME280;42622;49.972;8.452;2022-11-06T01:29:08;101019.41;;;4.55;100.00
56876;BME280;42622;49.972;8.452;2022-11-06T01:31:35;101019.50;;;4.52;100.00
56876;BME280;42622;49.972;8.452;2022-11-06T01:34:02;101014.41;;;4.49;100.00
56876;BME280;42622;49.972;8.452;2022-11-06T01:36:29;101021.53;;;4.44;100.00
56876;BME280;42622;49.972;8.452;2022-11-06T01:38:58;101016.50;;;4.38;100.00
56876;BME280;42622;49.972;8.452;2022-11-06T01:41:29;101021.94;;;4.31;100.00
56876;BME280;42622;49.972;8.452;2022-11-06T01:44:02;101012.69;;;4.21;100.00
56876;BME280;42622;49.972;8.452;2022-11-06T01:46:33;101020.81;;;4.12;100.00
56876;BME280;42622;49.972;8.452;2022-11-06T01:49:09;101015.69;;;4.09;100.00
56876;BME280;42622;49.972;8.452;2022-11-06T01:51:45;101000.97;;;4.05;100.00
56876;BME280;42622;49.972;8.452;2022-11-06T01:54:13;100997.59;;;4.01;100.00
56876;BME280;42622;49.972;8.452;2022-11-06T01:56:43;100989.81;;;4.00;100.00
56876;BME280;42622;49.972;8.452;2022-11-06T01:59:15;100987.31;;;3.97;100.00
56876;BME280;42622;49.972;8.452;2022-11-06T02:01:42;100991.00;;;3.90;100.00
56876;BME280;42622;49.972;8.452;2022-11-06T02:04:21;100997.25;;;3.86;100.00
56876;BME280;42622;49.972;8.452;2022-11-06T02:06:49;100998.34;;;3.78;100.00
56876;BME280;42622;49.972;8.452;2022-11-06T02:09:16;100988.84;;;3.74;100.00
56876;BME280;42622;49.972;8.452;2022-11-06T02:11:50;100982.09;;;3.67;100.00
56876;BME280;42622;49.972;8.452;2022-11-06T02:14:23;100976.84;;;3.69;100.00
56876;BME280;42622;49.972;8.452;2022-11-06T02:23:05;100968.41;;;3.59;100.00
56876;BME280;42622;49.972;8.452;2022-11-06T02:29:29;100966.34;;;3.41;100.00
56876;BME280;42622;49.972;8.452;2022-11-06T02:31:41;100973.44;;;3.35;100.00
56876;BME280;42622;49.972;8.452;2022-11-06T02:34:17;100961.53;;;3.27;100.00
56876;BME280;42622;49.972;8.452;2022-11-06T02:37:09;100961.75;;;3.19;100.00
56876;BME280;42622;49.972;8.452;2022-11-06T02:39:43;100961.91;;;3.13;100.00
56876;BME280;42622;49.972;8.452;2022-11-06T02:42:15;100955.25;;;3.03;100.00
56876;BME280;42622;49.972;8.452;2022-11-06T02:44:48;100954.53;;;2.98;100.00
56876;BME280;42622;49.972;8.452;2022-11-06T02:47:18;100947.75;;;2.91;100.00
56876;BME280;42622;49.972;8.452;2022-11-06T02:53:08;100961.13;;;2.78;100.00
56876;BME280;42622;49.972;8.452;2022-11-06T02:55:54;100954.44;;;2.70;100.00
56876;BME280;42622;49.972;8.452;2022-11-06T02:58:35;100961.41;;;2.69;100.00
56876;BME280;42622;49.972;8.452;2022-11-06T03:04:17;100961.63;;;2.60;100.00
56876;BME280;42622;49.972;8.452;2022-11-06T03:06:58;100955.59;;;2.58;100.00
56876;BME280;42622;49.972;8.452;2022-11-06T03:09:32;100963.47;;;2.56;100.00
56876;BME280;42622;49.972;8.452;2022-11-06T03:18:09;100971.50;;;2.49;100.00
56876;BME280;42622;49.972;8.452;2022-11-06T03:21:06;100949.88;;;2.44;100.00
56876;BME280;42622;49.972;8.452;2022-11-06T03:23:51;100946.41;;;2.43;100.00
56876;BME280;42622;49.972;8.452;2022-11-06T03:26:32;100945.72;;;2.36;100.00
56876;BME280;42622;49.972;8.452;2022-11-06T03:29:15;100947.47;;;2.36;100.00
56876;BME280;42622;49.972;8.452;2022-11-06T03:31:56;100944.00;;;2.35;100.00
56876;BME280;42622;49.972;8.452;2022-11-06T03:34:40;100952.81;;;2.31;100.00
56876;BME280;42622;49.972;8.452;2022-11-06T03:37:28;100950.25;;;2.30;100.00
56876;BME280;42622;49.972;8.452;2022-11-06T03:40:03;100952.97;;;2.25;100.00
56876;BME280;42622;49.972;8.452;2022-11-06T03:42:31;100956.47;;;2.24;100.00
56876;BME280;42622;49.972;8.452;2022-11-06T03:45:08;100953.09;;;2.21;100.00
56876;BME280;42622;49.972;8.452;2022-11-06T03:47:44;100944.53;;;2.14;100.00
56876;BME280;42622;49.972;8.452;2022-11-06T03:50:31;100942.00;;;2.11;100.00
56876;BME280;42622;49.972;8.452;2022-11-06T03:53:10;100935.94;;;2.10;100.00
56876;BME280;42622;49.972;8.452;2022-11-06T03:55:49;100932.63;;;2.04;100.00
56876;BME280;42622;49.972;8.452;2022-11-06T03:58:25;100927.41;;;2.04;100.00
56876;BME280;42622;49.972;8.452;2022-11-06T04:00:58;100929.31;;;1.97;100.00
56876;BME280;42622;49.972;8.452;2022-11-06T04:03:47;100925.84;;;1.97;100.00
56876;BME280;42622;49.972;8.452;2022-11-06T04:06:29;100925.03;;;1.95;100.00
56876;BME280;42622;49.972;8.452;2022-11-06T04:09:02;100918.16;;;1.92;100.00
56876;BME280;42622;49.972;8.452;2022-11-06T04:11:49;100919.91;;;1.91;100.00
56876;BME280;42622;49.972;8.452;2022-11-06T04:14:40;100920.94;;;1.84;100.00
56876;BME280;42622;49.972;8.452;2022-11-06T04:17:12;100921.88;;;1.82;100.00
56876;BME280;42622;49.972;8.452;2022-11-06T04:19:48;100924.47;;;1.82;100.00
56876;BME280;42622;49.972;8.452;2022-11-06T04:22:53;100919.38;;;1.77;100.00
56876;BME280;42622;49.972;8.452;2022-11-06T04:28:47;100923.88;;;1.71;100.00
56876;BME280;42622;49.972;8.452;2022-11-06T04:31:29;100928.25;;;1.70;100.00
56876;BME280;42622;49.972;8.452;2022-11-06T04:39:59;100951.59;;;1.73;100.00
56876;BME280;42622;49.972;8.452;2022-11-06T04:45:25;100946.25;;;1.79;100.00
56876;BME280;42622;49.972;8.452;2022-11-06T04:47:54;100943.63;;;1.79;100.00
56876;BME280;42622;49.972;8.452;2022-11-06T04:50:25;100941.03;;;1.79;100.00
56876;BME280;42622;49.972;8.452;2022-11-06T04:52:53;100927.06;;;1.82;100.00
56876;BME280;42622;49.972;8.452;2022-11-06T04:55:21;100931.31;;;1.86;100.00
56876;BME280;42622;49.972;8.452;2022-11-06T04:57:47;100933.00;;;1.88;100.00
56876;BME280;42622;49.972;8.452;2022-11-06T05:00:14;100950.28;;;1.92;100.00
56876;BME280;42622;49.972;8.452;2022-11-06T05:02:40;100943.19;;;1.98;100.00
56876;BME280;42622;49.972;8.452;2022-11-06T05:05:07;100936.13;;;2.03;100.00
56876;BME280;42622;49.972;8.452;2022-11-06T05:07:33;100946.31;;;2.12;100.00
56876;BME280;42622;49.972;8.452;2022-11-06T05:09:58;100936.69;;;2.15;100.00
56876;BME280;42622;49.972;8.452;2022-11-06T05:12:24;100933.81;;;2.26;100.00
56876;BME280;42622;49.972;8.452;2022-11-06T05:14:50;100946.59;;;2.37;100.00
56876;BME280;42622;49.972;8.452;2022-11-06T05:17:15;100946.41;;;2.43;100.00
56876;BME280;42622;49.972;8.452;2022-11-06T05:19:41;100939.34;;;2.47;100.00
56876;BME280;42622;49.972;8.452;2022-11-06T05:22:08;100922.72;;;2.51;100.00
56876;BME280;42622;49.972;8.452;2022-11-06T05:24:53;100927.72;;;2.60;100.00
56876;BME280;42622;49.972;8.452;2022-11-06T05:27:18;100927.56;;;2.66;100.00
56876;BME280;42622;49.972;8.452;2022-11-06T05:29:44;100922.16;;;2.72;100.00
56876;BME280;42622;49.972;8.452;2022-11-06T05:32:10;100928.25;;;2.73;100.00
56876;BME280;42622;49.972;8.452;2022-11-06T05:34:35;100917.72;;;2.76;100.00
56876;BME280;42622;49.972;8.452;2022-11-06T05:37:01;100911.44;;;2.81;100.00
56876;BME280;42622;49.972;8.452;2022-11-06T05:39:27;100906.22;;;2.83;100.00
56876;BME280;42622;49.972;8.452;2022-11-06T05:41:52;100914.81;;;2.86;100.00
56876;BME280;42622;49.972;8.452;2022-11-06T05:44:18;100908.53;;;2.92;100.00
56876;BME280;42622;49.972;8.452;2022-11-06T05:46:43;100912.75;;;2.98;100.00
56876;BME280;42622;49.972;8.452;2022-11-06T05:49:09;100920.38;;;3.04;100.00
56876;BME280;42622;49.972;8.452;2022-11-06T05:51:35;100921.97;;;3.09;100.00
56876;BME280;42622;49.972;8.452;2022-11-06T05:54:00;100913.97;;;3.16;100.00
56876;BME280;42622;49.972;8.452;2022-11-06T05:56:26;100908.41;;;3.26;100.00
56876;BME280;42622;49.972;8.452;2022-11-06T05:58:52;100899.50;;;3.33;100.00
56876;BME280;42622;49.972;8.452;2022-11-06T06:01:17;100885.44;;;3.38;100.00
56876;BME280;42622;49.972;8.452;2022-11-06T06:03:43;100886.13;;;3.43;100.00
56876;BME280;42622;49.972;8.452;2022-11-06T06:06:08;100874.63;;;3.48;100.00
56876;BME280;42622;49.972;8.452;2022-11-06T06:08:34;100867.63;;;3.50;100.00
56876;BME280;42622;49.972;8.452;2022-11-06T06:11:05;100860.53;;;3.54;100.00
56876;BME280;42622;49.972;8.452;2022-11-06T06:13:31;100851.69;;;3.58;100.00
56876;BME280;42622;49.972;8.452;2022-11-06T06:16:00;100866.44;;;3.61;100.00
56876;BME280;42622;49.972;8.452;2022-11-06T06:18:27;100868.22;;;3.58;100.00
56876;BME280;42622;49.972;8.452;2022-11-06T06:20:52;100876.75;;;3.64;100.00
56876;BME280;42622;49.972;8.452;2022-11-06T06:23:18;100865.41;;;3.65;100.00
56876;BME280;42622;49.972;8.452;2022-11-06T06:25:43;100860.03;;;3.69;100.00
56876;BME280;42622;49.972;8.452;2022-11-06T06:28:09;100837.41;;;3.68;100.00
56876;BME280;42622;49.972;8.452;2022-11-06T06:30:35;100842.75;;;3.65;100.00
56876;BME280;42622;49.972;8.452;2022-11-06T06:33:05;100849.56;;;3.69;100.00
56876;BME280;42622;49.972;8.452;2022-11-06T06:35:32;100847.06;;;3.66;100.00
56876;BME280;42622;49.972;8.452;2022-11-06T06:37:58;100833.03;;;3.69;100.00
56876;BME280;42622;49.972;8.452;2022-11-06T06:40:23;100823.44;;;3.69;100.00
56876;BME280;42622;49.972;8.452;2022-11-06T06:42:51;100815.53;;;3.71;100.00
56876;BME280;42622;49.972;8.452;2022-11-06T06:45:19;100811.31;;;3.67;100.00
56876;BME280;42622;49.972;8.452;2022-11-06T06:47:45;100813.03;;;3.68;100.00
56876;BME280;42622;49.972;8.452;2022-11-06T06:50:10;100817.34;;;3.69;100.00
56876;BME280;42622;49.972;8.452;2022-11-06T06:52:36;100819.06;;;3.70;100.00
56876;BME280;42622;49.972;8.452;2022-11-06T06:55:01;100810.28;;;3.71;100.00
56876;BME280;42622;49.972;8.452;2022-11-06T06:57:27;100812.91;;;3.71;100.00
56876;BME280;42622;49.972;8.452;2022-11-06T06:59:53;100817.16;;;3.75;100.00
56876;BME280;42622;49.972;8.452;2022-11-06T07:02:18;100817.03;;;3.78;100.00
56876;BME280;42622;49.972;8.452;2022-11-06T07:04:44;100813.38;;;3.83;100.00
56876;BME280;42622;49.972;8.452;2022-11-06T07:07:10;100814.03;;;3.89;100.00
56876;BME280;42622;49.972;8.452;2022-11-06T07:09:35;100812.16;;;3.94;100.00
56876;BME280;42622;49.972;8.452;2022-11-06T07:12:01;100823.25;;;4.00;100.00
56876;BME280;42622;49.972;8.452;2022-11-06T07:14:26;100819.53;;;4.07;100.00
56876;BME280;42622;49.972;8.452;2022-11-06T07:16:52;100823.75;;;4.12;100.00
56876;BME280;42622;49.972;8.452;2022-11-06T07:19:18;100816.75;;;4.12;100.00
56876;BME280;42622;49.972;8.452;2022-11-06T07:21:43;100816.63;;;4.15;100.00
56876;BME280;42622;49.972;8.452;2022-11-06T07:24:09;100816.31;;;4.24;100.00
56876;BME280;42622;49.972;8.452;2022-11-06T07:26:35;100814.28;;;4.32;100.00
56876;BME280;42622;49.972;8.452;2022-11-06T07:29:00;100811.50;;;4.37;100.00
56876;BME280;42622;49.972;8.452;2022-11-06T07:31:26;100810.44;;;4.43;100.00
56876;BME280;42622;49.972;8.452;2022-11-06T07:33:51;100807.00;;;4.41;100.00
56876;BME280;42622;49.972;8.452;2022-11-06T07:36:17;100809.78;;;4.36;100.00
56876;BME280;42622;49.972;8.452;2022-11-06T07:38:43;100806.53;;;4.29;100.00
56876;BME280;42622;49.972;8.452;2022-11-06T07:41:13;100797.94;;;4.26;100.00
56876;BME280;42622;49.972;8.452;2022-11-06T07:43:41;100799.34;;;4.35;100.00
56876;BME280;42622;49.972;8.452;2022-11-06T07:46:10;100794.94;;;4.37;100.00
56876;BME280;42622;49.972;8.452;2022-11-06T07:48:36;100798.94;;;4.47;100.00
56876;BME280;42622;49.972;8.452;2022-11-06T07:51:07;100804.63;;;4.58;100.00
56876;BME280;42622;49.972;8.452;2022-11-06T07:53:34;100801.72;;;4.66;100.00
56876;BME280;42622;49.972;8.452;2022-11-06T07:56:01;100809.53;;;4.67;100.00
56876;BME280;42622;49.972;8.452;2022-11-06T07:58:27;100804.31;;;4.66;100.00
56876;BME280;42622;49.972;8.452;2022-11-06T08:00:56;100816.47;;;4.68;100.00
56876;BME280;42622;49.972;8.452;2022-11-06T08:03:25;100819.91;;;4.70;100.00
56876;BME280;42622;49.972;8.452;2022-11-06T08:05:51;100824.94;;;4.75;100.00
56876;BME280;42622;49.972;8.452;2022-11-06T08:08:17;100820.34;;;4.82;100.00
56876;BME280;42622;49.972;8.452;2022-11-06T08:10:42;100822.56;;;4.92;100.00
56876;BME280;42622;49.972;8.452;2022-11-06T08:13:14;100817.50;;;4.88;100.00
56876;BME280;42622;49.972;8.452;2022-11-06T08:15:41;100817.34;;;4.91;100.00
56876;BME280;42622;49.972;8.452;2022-11-06T08:18:09;100826.75;;;4.96;100.00
56876;BME280;42622;49.972;8.452;2022-11-06T08:20:36;100824.06;;;4.98;100.00
56876;BME280;42622;49.972;8.452;2022-11-06T08:23:06;100831.78;;;5.02;100.00
56876;BME280;42622;49.972;8.452;2022-11-06T08:25:33;100834.94;;;5.11;100.00
56876;BME280;42622;49.972;8.452;2022-11-06T08:28:01;100831.09;;;5.19;100.00
56876;BME280;42622;49.972;8.452;2022-11-06T08:30:30;100826.31;;;5.31;100.00
56876;BME280;42622;49.972;8.452;2022-11-06T08:33:02;100828.44;;;5.43;100.00
56876;BME280;42622;49.972;8.452;2022-11-06T08:35:30;100817.69;;;5.49;100.00
56876;BME280;42622;49.972;8.452;2022-11-06T08:37:56;100818.22;;;5.57;100.00
56876;BME280;42622;49.972;8.452;2022-11-06T08:40:22;100807.38;;;5.66;100.00
56876;BME280;42622;49.972;8.452;2022-11-06T08:42:47;100801.56;;;5.80;100.00
56876;BME280;42622;49.972;8.452;2022-11-06T08:45:13;100797.56;;;5.92;100.00
56876;BME280;42622;49.972;8.452;2022-11-06T08:47:39;100795.00;;;6.11;100.00
56876;BME280;42622;49.972;8.452;2022-11-06T08:50:05;100799.78;;;6.21;100.00
56876;BME280;42622;49.972;8.452;2022-11-06T08:52:33;100796.13;;;6.26;100.00
56876;BME280;42622;49.972;8.452;2022-11-06T08:54:59;100787.38;;;6.25;100.00
56876;BME280;42622;49.972;8.452;2022-11-06T08:57:24;100784.72;;;6.27;100.00
56876;BME280;42622;49.972;8.452;2022-11-06T08:59:50;100778.66;;;6.25;100.00
56876;BME280;42622;49.972;8.452;2022-11-06T09:02:16;100786.19;;;6.32;100.00
56876;BME280;42622;49.972;8.452;2022-11-06T09:04:41;100786.00;;;6.37;100.00
56876;BME280;42622;49.972;8.452;2022-11-06T09:07:07;100788.78;;;6.34;100.00
56876;BME280;42622;49.972;8.452;2022-11-06T09:09:32;100779.31;;;6.30;100.00
56876;BME280;42622;49.972;8.452;2022-11-06T09:11:59;100775.56;;;6.35;100.00
56876;BME280;42622;49.972;8.452;2022-11-06T09:14:26;100774.44;;;6.41;100.00
56876;BME280;42622;49.972;8.452;2022-11-06T09:16:52;100761.69;;;6.52;100.00
56876;BME280;42622;49.972;8.452;2022-11-06T09:19:18;100760.56;;;6.58;100.00
56876;BME280;42622;49.972;8.452;2022-11-06T09:21:44;100760.56;;;6.58;100.00
56876;BME280;42622;49.972;8.452;2022-11-06T09:24:10;100758.78;;;6.58;100.00
56876;BME280;42622;49.972;8.452;2022-11-06T09:26:36;100740.25;;;6.61;100.00
56876;BME280;42622;49.972;8.452;2022-11-06T09:29:02;100740.13;;;6.64;100.00
56876;BME280;42622;49.972;8.452;2022-11-06T09:31:28;100734.56;;;6.70;100.00
56876;BME280;42622;49.972;8.452;2022-11-06T09:33:53;100732.25;;;6.82;100.00
56876;BME280;42622;49.972;8.452;2022-11-06T09:36:20;100728.41;;;6.89;100.00
56876;BME280;42622;49.972;8.452;2022-11-06T09:38:45;100717.34;;;7.01;100.00
56876;BME280;42622;49.972;8.452;2022-11-06T09:41:25;100712.63;;;7.08;100.00
56876;BME280;42622;49.972;8.452;2022-11-06T09:46:48;100691.84;;;7.21;100.00
56876;BME280;42622;49.972;8.452;2022-11-06T09:49:34;100694.25;;;7.25;100.00
56876;BME280;42622;49.972;8.452;2022-11-06T09:55:03;100685.13;;;7.32;100.00
56876;BME280;42622;49.972;8.452;2022-11-06T09:57:46;100687.44;;;7.38;100.00
56876;BME280;42622;49.972;8.452;2022-11-06T10:00:16;100686.72;;;7.52;100.00
56876;BME280;42622;49.972;8.452;2022-11-06T10:02:49;100699.03;;;7.69;100.00
56876;BME280;42622;49.972;8.452;2022-11-06T10:05:36;100681.31;;;7.73;100.00
56876;BME280;42622;49.972;8.452;2022-11-06T10:08:16;100664.25;;;7.80;100.00
56876;BME280;42622;49.972;8.452;2022-11-06T10:13:51;100656.84;;;7.88;100.00
56876;BME280;42622;49.972;8.452;2022-11-06T10:17:09;100650.88;;;7.84;100.00
56876;BME280;42622;49.972;8.452;2022-11-06T10:19:51;100649.78;;;7.88;100.00
56876;BME280;42622;49.972;8.452;2022-11-06T10:22:39;100644.53;;;8.04;100.00
56876;BME280;42622;49.972;8.452;2022-11-06T10:25:21;100657.22;;;8.13;100.00
56876;BME280;42622;49.972;8.452;2022-11-06T10:28:26;100649.84;;;8.20;100.00
56876;BME280;42622;49.972;8.452;2022-11-06T10:34:04;100634.09;;;8.52;100.00
56876;BME280;42622;49.972;8.452;2022-11-06T10:39:25;100638.03;;;8.75;100.00
56876;BME280;42622;49.972;8.452;2022-11-06T10:44:51;100642.25;;;8.93;100.00
56876;BME280;42622;49.972;8.452;2022-11-06T10:47:50;100626.59;;;9.06;100.00
56876;BME280;42622;49.972;8.452;2022-11-06T10:50:17;100618.50;;;9.09;100.00
56876;BME280;42622;49.972;8.452;2022-11-06T10:52:58;100621.97;;;9.09;100.00
56876;BME280;42622;49.972;8.452;2022-11-06T10:58:28;100600.69;;;9.13;100.00
56876;BME280;42622;49.972;8.452;2022-11-06T11:01:00;100603.84;;;9.19;100.00
56876;BME280;42622;49.972;8.452;2022-11-06T11:03:34;100589.22;;;9.28;100.00
56876;BME280;42622;49.972;8.452;2022-11-06T11:06:00;100580.00;;;9.35;100.00
56876;BME280;42622;49.972;8.452;2022-11-06T11:13:50;100578.53;;;9.60;100.00
56876;BME280;42622;49.972;8.452;2022-11-06T11:16:41;100577.78;;;9.72;100.00
56876;BME280;42622;49.972;8.452;2022-11-06T11:19:39;100556.53;;;9.88;100.00
56876;BME280;42622;49.972;8.452;2022-11-06T11:22:24;100561.91;;;10.00;100.00
56876;BME280;42622;49.972;8.452;2022-11-06T11:25:04;100553.34;;;10.24;100.00
56876;BME280;42622;49.972;8.452;2022-11-06T11:27:43;100543.63;;;10.91;100.00
56876;BME280;42622;49.972;8.452;2022-11-06T11:30:22;100538.41;;;11.42;100.00
56876;BME280;42622;49.972;8.452;2022-11-06T11:32:52;100532.66;;;11.74;100.00
56876;BME280;42622;49.972;8.452;2022-11-06T11:35:25;100526.16;;;12.28;100.00
56876;BME280;42622;49.972;8.452;2022-11-06T11:38:06;100521.63;;;13.11;100.00
56876;BME280;42622;49.972;8.452;2022-11-06T11:40:37;100508.50;;;13.77;96.78
56876;BME280;42622;49.972;8.452;2022-11-06T11:43:27;100514.47;;;14.13;96.28
56876;BME280;42622;49.972;8.452;2022-11-06T11:48:47;100495.94;;;13.91;94.90
56876;BME280;42622;49.972;8.452;2022-11-06T11:51:37;100472.75;;;13.14;95.18
56876;BME280;42622;49.972;8.452;2022-11-06T11:56:50;100457.44;;;11.64;98.04
56876;BME280;42622;49.972;8.452;2022-11-06T11:59:42;100440.50;;;11.04;99.12
56876;BME280;42622;49.972;8.452;2022-11-06T12:02:46;100432.03;;;10.73;100.00
56876;BME280;42622;49.972;8.452;2022-11-06T12:05:23;100437.13;;;10.76;100.00
56876;BME280;42622;49.972;8.452;2022-11-06T12:07:57;100441.75;;;10.98;100.00
56876;BME280;42622;49.972;8.452;2022-11-06T12:10:40;100431.69;;;11.29;99.85
56876;BME280;42622;49.972;8.452;2022-11-06T12:13:21;100436.34;;;11.38;98.73
56876;BME280;42622;49.972;8.452;2022-11-06T12:15:58;100419.41;;;11.28;97.36
56876;BME280;42622;49.972;8.452;2022-11-06T12:18:33;100417.31;;;11.08;97.79
56876;BME280;42622;49.972;8.452;2022-11-06T12:21:08;100406.53;;;10.98;97.81
56876;BME280;42622;49.972;8.452;2022-11-06T12:23:42;100404.84;;;10.84;97.32
56876;BME280;42622;49.972;8.452;2022-11-06T12:29:30;100398.50;;;10.74;97.13
56876;BME280;42622;49.972;8.452;2022-11-06T12:35:06;100399.13;;;10.90;93.96
56876;BME280;42622;49.972;8.452;2022-11-06T12:41:13;100399.84;;;11.18;92.93
56876;BME280;42622;49.972;8.452;2022-11-06T12:43:45;100382.56;;;11.38;91.54
56876;BME280;42622;49.972;8.452;2022-11-06T12:55:28;100330.28;;;10.79;90.43
56876;BME280;42622;49.972;8.452;2022-11-06T13:04:00;100334.03;;;10.64;91.34
56876;BME280;42622;49.972;8.452;2022-11-06T13:07:00;100324.59;;;10.60;91.47
56876;BME280;42622;49.972;8.452;2022-11-06T13:13:05;100316.91;;;10.57;91.04
56876;BME280;42622;49.972;8.452;2022-11-06T13:15:39;100308.63;;;10.61;91.04
56876;BME280;42622;49.972;8.452;2022-11-06T13:18:28;100302.94;;;10.67;90.89
56876;BME280;42622;49.972;8.452;2022-11-06T13:24:27;100312.47;;;11.07;90.02
56876;BME280;42622;49.972;8.452;2022-11-06T13:27:09;100300.53;;;11.01;89.45
56876;BME280;42622;49.972;8.452;2022-11-06T13:29:42;100310.81;;;10.93;89.54
56876;BME280;42622;49.972;8.452;2022-11-06T13:32:21;100311.34;;;10.85;90.33
56876;BME280;42622;49.972;8.452;2022-11-06T13:34:53;100315.38;;;10.78;89.76
56876;BME280;42622;49.972;8.452;2022-11-06T13:37:37;100302.06;;;10.67;89.88
56876;BME280;42622;49.972;8.452;2022-11-06T13:40:40;100306.53;;;10.53;89.58
56876;BME280;42622;49.972;8.452;2022-11-06T13:43:18;100303.03;;;10.40;89.83
56876;BME280;42622;49.972;8.452;2022-11-06T13:46:00;100303.03;;;10.27;89.79
56876;BME280;42622;49.972;8.452;2022-11-06T13:51:59;100299.81;;;10.10;90.56
56876;BME280;42622;49.972;8.452;2022-11-06T13:54:57;100297.50;;;10.05;91.16
56876;BME280;42622;49.972;8.452;2022-11-06T14:06:05;100264.44;;;10.12;90.86
56876;BME280;42622;49.972;8.452;2022-11-06T14:09:04;100261.03;;;10.10;90.92
56876;BME280;42622;49.972;8.452;2022-11-06T14:11:39;100267.28;;;10.09;91.32
56876;BME280;42622;49.972;8.452;2022-11-06T14:14:22;100265.59;;;10.08;90.91
56876;BME280;42622;49.972;8.452;2022-11-06T14:19:33;100281.00;;;10.01;91.43
56876;BME280;42622;49.972;8.452;2022-11-06T14:24:38;100289.34;;;9.95;91.65
56876;BME280;42622;49.972;8.452;2022-11-06T14:28:01;100289.75;;;9.89;91.40
56876;BME280;42622;49.972;8.452;2022-11-06T14:30:42;100276.34;;;9.79;91.72
56876;BME280;42622;49.972;8.452;2022-11-06T14:33:11;100273.78;;;9.78;92.04
56876;BME280;42622;49.972;8.452;2022-11-06T14:35:56;100285.50;;;9.74;92.05
56876;BME280;42622;49.972;8.452;2022-11-06T14:40:53;100271.56;;;9.72;91.77
56876;BME280;42622;49.972;8.452;2022-11-06T14:43:33;100269.84;;;9.71;92.94
56876;BME280;42622;49.972;8.452;2022-11-06T14:46:15;100269.66;;;9.74;92.33
56876;BME280;42622;49.972;8.452;2022-11-06T14:48:46;100270.63;;;9.73;92.49
56876;BME280;42622;49.972;8.452;2022-11-06T14:51:15;100265.22;;;9.74;92.15
56876;BME280;42622;49.972;8.452;2022-11-06T14:54:19;100269.56;;;9.75;92.14
56876;BME280;42622;49.972;8.452;2022-11-06T14:56:52;100257.22;;;9.76;92.61
56876;BME280;42622;49.972;8.452;2022-11-06T14:59:38;100256.66;;;9.71;92.08
56876;BME280;42622;49.972;8.452;2022-11-06T15:02:28;100263.31;;;9.64;92.07
56876;BME280;42622;49.972;8.452;2022-11-06T15:05:14;100266.44;;;9.56;92.09
56876;BME280;42622;49.972;8.452;2022-11-06T15:13:23;100226.81;;;9.43;92.88
56876;BME280;42622;49.972;8.452;2022-11-06T15:16:01;100226.28;;;9.38;92.59
56876;BME280;42622;49.972;8.452;2022-11-06T15:18:30;100219.75;;;9.31;93.12
56876;BME280;42622;49.972;8.452;2022-11-06T15:21:06;100226.38;;;9.24;92.91
56876;BME280;42622;49.972;8.452;2022-11-06T15:24:11;100241.66;;;9.19;94.02